createdAt,value
2018-02-13T00:01:09.788Z,0
2018-02-13T00:02:19.969Z,0
2018-02-13T00:03:30.117Z,0
2018-02-13T00:04:40.242Z,0
2018-02-13T00:05:50.460Z,0
2018-02-13T00:07:00.704Z,0
2018-02-13T00:08:10.600Z,0
2018-02-13T00:09:20.446Z,0
2018-02-13T00:10:30.574Z,0
2018-02-13T00:11:40.704Z,0
2018-02-13T00:12:50.830Z,0
2018-02-13T00:14:01.008Z,0
2018-02-13T00:15:11.112Z,0
2018-02-13T00:16:21.065Z,0
2018-02-13T00:17:31.368Z,0
2018-02-13T00:18:41.555Z,0
2018-02-13T00:19:51.752Z,0
2018-02-13T00:21:01.294Z,0
2018-02-13T00:22:11.401Z,0
2018-02-13T00:23:21.512Z,0
2018-02-13T00:24:31.737Z,0
2018-02-13T00:25:41.862Z,0
2018-02-13T00:26:52.108Z,0
2018-02-13T00:28:02.086Z,0
2018-02-13T00:29:12.217Z,0
2018-02-13T00:30:22.348Z,0
2018-02-13T00:31:32.497Z,0
2018-02-13T00:32:42.477Z,0
2018-02-13T00:33:52.623Z,0
2018-02-13T00:35:02.744Z,0
2018-02-13T00:36:12.949Z,0
2018-02-13T00:37:23.073Z,0
2018-02-13T00:38:33.245Z,0
2018-02-13T00:39:42.879Z,0
2018-02-13T00:40:53.009Z,0
2018-02-13T00:42:03.134Z,0
2018-02-13T00:43:13.315Z,0
2018-02-13T00:44:23.182Z,0
2018-02-13T00:45:33.319Z,0
2018-02-13T00:46:43.444Z,0
2018-02-13T00:47:53.575Z,0
2018-02-13T00:49:03.737Z,0
2018-02-13T00:50:13.896Z,0
2018-02-13T00:51:24.011Z,0
2018-02-13T00:52:34.123Z,0
2018-02-13T00:53:44.276Z,0
2018-02-13T00:54:54.410Z,0
2018-02-13T00:56:04.659Z,0
2018-02-13T00:57:14.797Z,0
2018-02-13T00:58:24.911Z,0
2018-02-13T00:59:34.852Z,0
2018-02-13T01:00:44.751Z,0
2018-02-13T01:01:54.614Z,0
2018-02-13T01:03:04.763Z,0
2018-02-13T01:04:14.887Z,0
2018-02-13T01:05:25.012Z,0
2018-02-13T01:06:35.170Z,0
2018-02-13T01:07:45.273Z,0
2018-02-13T01:08:55.378Z,0
2018-02-13T01:10:05.537Z,0
2018-02-13T01:11:15.712Z,0
2018-02-13T01:12:25.982Z,0
2018-02-13T01:13:36.203Z,0
2018-02-13T01:14:46.313Z,0
2018-02-13T01:15:56.466Z,0
2018-02-13T01:17:06.587Z,0
2018-02-13T01:18:17.675Z,0
2018-02-13T01:19:27.550Z,0
2018-02-13T01:20:37.713Z,0
2018-02-13T01:21:47.627Z,0
2018-02-13T01:22:57.754Z,0
2018-02-13T01:24:07.854Z,0
2018-02-13T01:25:17.994Z,0
2018-02-13T01:26:27.843Z,0
2018-02-13T01:27:37.945Z,0
2018-02-13T01:28:48.113Z,0
2018-02-13T01:29:58.271Z,0
2018-02-13T01:31:08.422Z,0
2018-02-13T01:32:18.688Z,0
2018-02-13T01:33:28.852Z,0
2018-02-13T01:34:38.982Z,0
2018-02-13T01:35:49.328Z,0
2018-02-13T01:36:59.625Z,0
2018-02-13T01:38:09.930Z,0
2018-02-13T01:39:20.043Z,0
2018-02-13T01:40:29.900Z,0
2018-02-13T01:41:41.058Z,0
2018-02-13T01:42:51.178Z,0
2018-02-13T01:44:01.341Z,0
2018-02-13T01:45:11.713Z,0
2018-02-13T01:46:21.829Z,0
2018-02-13T01:47:31.965Z,0
2018-02-13T01:48:42.090Z,0
2018-02-13T01:49:52.189Z,0
2018-02-13T01:51:02.313Z,0
2018-02-13T01:52:12.481Z,0
2018-02-13T01:53:22.658Z,0
2018-02-13T01:54:32.965Z,0
2018-02-13T01:55:43.175Z,0
2018-02-13T01:56:53.286Z,0
2018-02-13T01:58:03.647Z,0
2018-02-13T01:59:13.790Z,0
2018-02-13T02:00:23.938Z,0
2018-02-13T02:01:33.865Z,0
2018-02-13T02:02:43.985Z,0
2018-02-13T02:03:54.158Z,0
2018-02-13T02:05:04.277Z,0
2018-02-13T02:06:14.614Z,0
2018-02-13T02:07:24.744Z,0
2018-02-13T02:08:34.655Z,0
2018-02-13T02:09:44.844Z,0
2018-02-13T02:10:55.057Z,0
2018-02-13T02:12:04.943Z,0
2018-02-13T02:13:15.056Z,0
2018-02-13T02:14:24.795Z,0
2018-02-13T02:15:35.923Z,0
2018-02-13T02:16:46.233Z,0
2018-02-13T02:17:56.397Z,0
2018-02-13T02:19:06.591Z,0
2018-02-13T02:20:16.757Z,0
2018-02-13T02:21:27.048Z,0
2018-02-13T02:22:37.152Z,0
2018-02-13T02:23:47.019Z,0
2018-02-13T02:24:57.169Z,0
2018-02-13T02:26:07.363Z,0
2018-02-13T02:27:17.497Z,0
2018-02-13T02:28:27.589Z,0
2018-02-13T02:29:37.734Z,0
2018-02-13T02:30:47.617Z,0
2018-02-13T02:31:57.734Z,0
2018-02-13T02:33:07.856Z,0
2018-02-13T02:34:18.023Z,0
2018-02-13T02:35:28.170Z,0
2018-02-13T02:36:38.018Z,0
2018-02-13T02:37:47.886Z,0
2018-02-13T02:38:58.975Z,0
2018-02-13T02:40:08.832Z,0
2018-02-13T02:41:18.934Z,0
2018-02-13T02:42:29.140Z,0
2018-02-13T02:43:39.291Z,0
2018-02-13T02:44:49.329Z,0
2018-02-13T02:45:59.463Z,0
2018-02-13T02:47:09.567Z,0
2018-02-13T02:48:19.701Z,0
2018-02-13T02:49:29.968Z,0
2018-02-13T02:50:40.096Z,0
2018-02-13T02:51:50.198Z,0
2018-02-13T02:53:00.309Z,0
2018-02-13T02:54:10.454Z,0
2018-02-13T02:55:20.565Z,0
2018-02-13T02:56:30.751Z,0
2018-02-13T02:57:40.717Z,0
2018-02-13T02:58:50.839Z,0
2018-02-13T03:00:00.975Z,0
2018-02-13T03:01:11.092Z,0
2018-02-13T03:02:20.943Z,0
2018-02-13T03:03:31.110Z,0
2018-02-13T03:04:41.344Z,0
2018-02-13T03:05:51.534Z,0
2018-02-13T03:07:01.701Z,0
2018-02-13T03:08:11.584Z,0
2018-02-13T03:09:21.727Z,0
2018-02-13T03:10:31.840Z,0
2018-02-13T03:11:42.052Z,0
2018-02-13T03:12:52.173Z,0
2018-02-13T03:14:02.309Z,0
2018-02-13T03:15:12.439Z,0
2018-02-13T03:16:22.615Z,0
2018-02-13T03:17:32.739Z,0
2018-02-13T03:18:42.879Z,0
2018-02-13T03:19:53.958Z,0
2018-02-13T03:21:04.079Z,0
2018-02-13T03:22:13.687Z,0
2018-02-13T03:23:23.907Z,0
2018-02-13T03:24:34.023Z,0
2018-02-13T03:25:44.134Z,0
2018-02-13T03:26:54.026Z,0
2018-02-13T03:28:04.123Z,0
2018-02-13T03:29:14.239Z,0
2018-02-13T03:30:24.371Z,0
2018-02-13T03:31:34.489Z,0
2018-02-13T03:32:44.728Z,0
2018-02-13T03:33:54.938Z,0
2018-02-13T03:35:05.364Z,0
2018-02-13T03:36:15.496Z,0
2018-02-13T03:37:25.712Z,0
2018-02-13T03:38:35.935Z,0
2018-02-13T03:39:46.055Z,0
2018-02-13T03:40:56.220Z,0
2018-02-13T03:42:06.534Z,0
2018-02-13T03:43:16.752Z,0
2018-02-13T03:44:26.654Z,0
2018-02-13T03:45:36.760Z,0
2018-02-13T03:46:46.566Z,0
2018-02-13T03:47:56.675Z,0
2018-02-13T03:49:06.805Z,0
2018-02-13T03:50:16.986Z,0
2018-02-13T03:51:28.204Z,0
2018-02-13T03:52:38.385Z,0
2018-02-13T03:53:48.537Z,0
2018-02-13T03:54:59.390Z,0
2018-02-13T03:56:09.526Z,0
2018-02-13T03:57:19.657Z,0
2018-02-13T03:58:29.762Z,0
2018-02-13T03:59:39.880Z,0
2018-02-13T04:00:51.030Z,0
2018-02-13T04:02:01.248Z,0
2018-02-13T04:03:11.622Z,0
2018-02-13T04:04:22.437Z,0
2018-02-13T04:05:32.560Z,0
2018-02-13T04:06:42.660Z,0
2018-02-13T04:07:52.792Z,0
2018-02-13T04:09:02.899Z,0
2018-02-13T04:10:13.016Z,0
2018-02-13T04:11:23.128Z,0
2018-02-13T04:12:33.328Z,0
2018-02-13T04:13:43.479Z,0
2018-02-13T04:14:53.717Z,0
2018-02-13T04:16:03.916Z,0
2018-02-13T04:17:14.117Z,0
2018-02-13T04:18:24.302Z,0
2018-02-13T04:19:34.587Z,0
2018-02-13T04:20:44.794Z,0
2018-02-13T04:21:55.048Z,0
2018-02-13T04:23:05.220Z,0
2018-02-13T04:24:15.407Z,0
2018-02-13T04:25:25.635Z,0
2018-02-13T04:26:35.900Z,0
2018-02-13T04:27:46.114Z,0
2018-02-13T04:28:56.302Z,0
2018-02-13T04:30:06.456Z,0
2018-02-13T04:31:16.437Z,0
2018-02-13T04:32:26.554Z,0
2018-02-13T04:33:36.705Z,0
2018-02-13T04:34:46.953Z,0
2018-02-13T04:35:57.132Z,0
2018-02-13T04:37:07.291Z,0
2018-02-13T04:38:17.585Z,0
2018-02-13T04:39:27.430Z,0
2018-02-13T04:40:37.645Z,0
2018-02-13T04:41:47.906Z,0
2018-02-13T04:42:58.049Z,0
2018-02-13T04:44:08.169Z,0
2018-02-13T04:45:18.516Z,0
2018-02-13T04:46:28.650Z,0
2018-02-13T04:47:38.923Z,0
2018-02-13T04:48:49.120Z,0
2018-02-13T04:49:59.056Z,0
2018-02-13T04:51:09.163Z,0
2018-02-13T04:52:19.312Z,0
2018-02-13T04:53:29.154Z,0
2018-02-13T04:54:39.296Z,0
2018-02-13T04:55:49.537Z,0
2018-02-13T04:56:59.814Z,0
2018-02-13T04:58:10.027Z,0
2018-02-13T04:59:20.242Z,0
2018-02-13T05:00:30.375Z,0
2018-02-13T05:01:40.231Z,0
2018-02-13T05:02:50.452Z,0
2018-02-13T05:04:00.319Z,0
2018-02-13T05:05:10.186Z,0
2018-02-13T05:06:20.081Z,0
2018-02-13T05:07:29.978Z,0
2018-02-13T05:08:40.093Z,0
2018-02-13T05:09:50.269Z,0
2018-02-13T05:11:00.451Z,0
2018-02-13T05:12:10.673Z,0
2018-02-13T05:13:20.602Z,0
2018-02-13T05:14:30.453Z,0
2018-02-13T05:15:40.558Z,0
2018-02-13T05:16:50.682Z,0
2018-02-13T05:18:00.842Z,0
2018-02-13T05:19:11.027Z,0
2018-02-13T05:20:21.203Z,0
2018-02-13T05:21:31.467Z,0
2018-02-13T05:22:41.722Z,0
2018-02-13T05:23:51.931Z,0
2018-02-13T05:25:02.126Z,0
2018-02-13T05:26:12.292Z,0
2018-02-13T05:27:22.579Z,0
2018-02-13T05:28:32.966Z,0
2018-02-13T05:29:43.146Z,0
2018-02-13T05:30:53.379Z,0
2018-02-13T05:32:03.529Z,0
2018-02-13T05:33:13.799Z,0
2018-02-13T05:34:23.983Z,0
2018-02-13T05:35:34.220Z,0
2018-02-13T05:36:43.974Z,0
2018-02-13T05:37:54.226Z,0
2018-02-13T05:39:04.065Z,0
2018-02-13T05:40:13.935Z,0
2018-02-13T05:41:23.817Z,0
2018-02-13T05:42:33.923Z,0
2018-02-13T05:43:44.066Z,0
2018-02-13T05:44:54.202Z,0
2018-02-13T05:46:04.315Z,0
2018-02-13T05:47:14.450Z,0
2018-02-13T05:48:24.666Z,0
2018-02-13T05:49:34.771Z,0
2018-02-13T05:50:44.894Z,0
2018-02-13T05:51:54.989Z,0
2018-02-13T05:53:05.101Z,0
2018-02-13T05:54:15.210Z,0
2018-02-13T05:55:25.349Z,0
2018-02-13T05:56:35.452Z,0
2018-02-13T05:57:45.560Z,0
2018-02-13T05:58:55.412Z,4
2018-02-13T06:00:05.542Z,4
2018-02-13T06:01:15.651Z,0
2018-02-13T06:02:25.528Z,4
2018-02-13T06:03:35.437Z,4
2018-02-13T06:04:45.567Z,4
2018-02-13T06:05:55.676Z,4
2018-02-13T06:07:05.885Z,8
2018-02-13T06:08:15.615Z,8
2018-02-13T06:09:25.718Z,8
2018-02-13T06:10:35.944Z,12
2018-02-13T06:11:46.159Z,16
2018-02-13T06:12:56.338Z,20
2018-02-13T06:14:06.554Z,20
2018-02-13T06:15:16.808Z,24
2018-02-13T06:16:26.666Z,28
2018-02-13T06:17:36.518Z,32
2018-02-13T06:18:46.625Z,44
2018-02-13T06:19:56.756Z,48
2018-02-13T06:21:06.961Z,56
2018-02-13T06:22:16.941Z,68
2018-02-13T06:23:27.035Z,80
2018-02-13T06:24:37.141Z,92
2018-02-13T06:25:47.331Z,104
2018-02-13T06:26:57.582Z,120
2018-02-13T06:28:07.710Z,136
2018-02-13T06:29:17.815Z,156
2018-02-13T06:30:27.940Z,172
2018-02-13T06:31:38.105Z,196
2018-02-13T06:32:47.953Z,220
2018-02-13T06:33:58.063Z,240
2018-02-13T06:35:08.170Z,264
2018-02-13T06:36:18.320Z,292
2018-02-13T06:37:28.442Z,316
2018-02-13T06:38:38.548Z,348
2018-02-13T06:39:48.649Z,380
2018-02-13T06:40:58.798Z,412
2018-02-13T06:42:08.961Z,448
2018-02-13T06:43:19.207Z,484
2018-02-13T06:44:29.398Z,520
2018-02-13T06:45:39.505Z,560
2018-02-13T06:46:50.337Z,600
2018-02-13T06:48:00.473Z,644
2018-02-13T06:49:10.586Z,688
2018-02-13T06:50:20.487Z,728
2018-02-13T06:51:30.766Z,772
2018-02-13T06:52:41.114Z,820
2018-02-13T06:53:51.220Z,868
2018-02-13T06:55:01.406Z,912
2018-02-13T06:56:11.297Z,964
2018-02-13T06:57:21.404Z,1016
2018-02-13T06:58:30.908Z,1064
2018-02-13T06:59:41.025Z,1116
2018-02-13T07:00:51.122Z,1172
2018-02-13T07:02:01.255Z,1228
2018-02-13T07:03:11.436Z,1304
2018-02-13T07:04:21.314Z,1396
2018-02-13T07:05:31.532Z,1496
2018-02-13T07:06:41.721Z,1596
2018-02-13T07:07:51.937Z,1680
2018-02-13T07:09:01.900Z,1768
2018-02-13T07:10:12.008Z,1848
2018-02-13T07:11:22.310Z,1964
2018-02-13T07:12:32.194Z,2124
2018-02-13T07:13:41.788Z,2332
2018-02-13T07:14:51.892Z,2568
2018-02-13T07:16:02.025Z,2844
2018-02-13T07:17:12.163Z,3212
2018-02-13T07:18:22.316Z,3608
2018-02-13T07:19:32.713Z,3916
2018-02-13T07:20:42.933Z,4208
2018-02-13T07:21:52.823Z,4476
2018-02-13T07:23:03.022Z,4736
2018-02-13T07:24:13.172Z,4964
2018-02-13T07:25:23.401Z,5252
2018-02-13T07:26:33.528Z,5556
2018-02-13T07:27:43.933Z,5504
2018-02-13T07:28:54.258Z,6188
2018-02-13T07:30:04.256Z,6508
2018-02-13T07:31:14.403Z,6756
2018-02-13T07:32:24.537Z,7032
2018-02-13T07:33:34.644Z,7336
2018-02-13T07:34:44.770Z,7552
2018-02-13T07:35:54.608Z,7812
2018-02-13T07:37:04.785Z,8044
2018-02-13T07:38:14.926Z,8304
2018-02-13T07:39:25.147Z,8488
2018-02-13T07:40:35.308Z,8736
2018-02-13T07:41:45.194Z,8916
2018-02-13T07:42:55.348Z,9128
2018-02-13T07:44:05.467Z,9376
2018-02-13T07:45:15.636Z,9692
2018-02-13T07:46:25.801Z,9988
2018-02-13T07:47:35.955Z,10296
2018-02-13T07:48:46.102Z,10520
2018-02-13T07:49:56.229Z,10732
2018-02-13T07:51:06.128Z,11056
2018-02-13T07:52:16.020Z,11520
2018-02-13T07:53:26.144Z,11808
2018-02-13T07:54:36.276Z,12064
2018-02-13T07:55:46.393Z,12352
2018-02-13T07:56:56.579Z,10868
2018-02-13T07:58:06.699Z,12608
2018-02-13T07:59:16.827Z,13632
2018-02-13T08:00:26.960Z,13952
2018-02-13T08:01:36.736Z,14240
2018-02-13T08:02:47.002Z,14400
2018-02-13T08:03:57.292Z,14752
2018-02-13T08:05:07.423Z,15040
2018-02-13T08:06:17.390Z,15360
2018-02-13T08:07:27.556Z,15808
2018-02-13T08:08:37.681Z,16224
2018-02-13T08:09:47.824Z,16544
2018-02-13T08:10:58.084Z,16416
2018-02-13T08:12:08.360Z,16800
2018-02-13T08:13:18.552Z,17120
2018-02-13T08:14:28.841Z,17536
2018-02-13T08:15:38.990Z,18048
2018-02-13T08:16:49.317Z,18304
2018-02-13T08:17:59.444Z,18336
2018-02-13T08:19:09.638Z,18464
2018-02-13T08:20:19.841Z,19040
2018-02-13T08:21:29.987Z,19296
2018-02-13T08:22:40.173Z,19744
2018-02-13T08:23:50.301Z,20192
2018-02-13T08:25:00.420Z,20000
2018-02-13T08:26:10.579Z,20480
2018-02-13T08:27:20.789Z,21504
2018-02-13T08:28:30.964Z,22048
2018-02-13T08:29:41.149Z,22432
2018-02-13T08:30:51.367Z,22464
2018-02-13T08:32:01.233Z,22592
2018-02-13T08:33:12.337Z,23488
2018-02-13T08:34:22.553Z,23296
2018-02-13T08:35:32.760Z,24064
2018-02-13T08:36:44.938Z,23808
2018-02-13T08:37:56.459Z,24384
2018-02-13T08:39:06.870Z,24928
2018-02-13T08:40:16.741Z,24960
2018-02-13T08:41:26.859Z,25056
2018-02-13T08:42:36.626Z,25632
2018-02-13T08:43:46.784Z,26912
2018-02-13T08:44:57.018Z,26048
2018-02-13T08:46:07.189Z,27232
2018-02-13T08:47:16.959Z,28096
2018-02-13T08:48:27.168Z,28224
2018-02-13T08:49:37.360Z,27264
2018-02-13T08:50:47.595Z,27712
2018-02-13T08:51:57.812Z,29152
2018-02-13T08:53:07.958Z,29376
2018-02-13T08:54:18.180Z,27744
2018-02-13T08:55:28.447Z,30464
2018-02-13T08:56:38.684Z,31840
2018-02-13T08:57:48.915Z,31296
2018-02-13T08:58:59.142Z,31168
2018-02-13T09:00:09.284Z,30880
2018-02-13T09:01:19.447Z,30976
2018-02-13T09:02:29.513Z,32128
2018-02-13T09:03:39.638Z,32480
2018-02-13T09:04:49.791Z,33056
2018-02-13T09:05:59.933Z,32896
2018-02-13T09:07:10.311Z,32640
2018-02-13T09:08:20.417Z,32736
2018-02-13T09:09:29.799Z,35616
2018-02-13T09:10:40.086Z,34816
2018-02-13T09:11:50.243Z,33280
2018-02-13T09:13:00.386Z,33696
2018-02-13T09:14:10.770Z,35200
2018-02-13T09:15:22.836Z,33824
2018-02-13T09:16:34.518Z,33632
2018-02-13T09:17:44.684Z,34880
2018-02-13T09:18:54.992Z,38560
2018-02-13T09:20:05.134Z,40096
2018-02-13T09:21:15.088Z,36448
2018-02-13T09:22:25.207Z,35424
2018-02-13T09:23:35.340Z,38016
2018-02-13T09:24:45.676Z,35904
2018-02-13T09:25:55.834Z,36768
2018-02-13T09:28:18.372Z,39296
2018-02-13T09:29:28.518Z,37792
2018-02-13T09:30:38.647Z,39104
2018-02-13T09:31:48.788Z,38688
2018-02-13T09:32:59.044Z,40032
2018-02-13T09:34:09.253Z,38496
2018-02-13T09:35:19.494Z,35072
2018-02-13T09:36:29.706Z,40000
2018-02-13T09:37:39.992Z,37600
2018-02-13T09:38:50.120Z,39936
2018-02-13T09:40:00.244Z,43232
2018-02-13T09:41:10.409Z,42656
2018-02-13T09:42:20.197Z,39296
2018-02-13T09:43:29.988Z,42656
2018-02-13T09:44:40.126Z,40608
2018-02-13T09:45:50.355Z,40704
2018-02-13T09:47:00.347Z,42368
2018-02-13T09:48:10.471Z,40032
2018-02-13T09:49:20.655Z,43360
2018-02-13T09:50:30.886Z,44608
2018-02-13T09:51:40.898Z,41920
2018-02-13T09:52:51.034Z,43712
2018-02-13T09:54:00.808Z,41312
2018-02-13T09:55:10.924Z,41536
2018-02-13T09:56:21.076Z,47680
2018-02-13T09:57:31.270Z,44128
2018-02-13T09:58:41.452Z,42848
2018-02-13T09:59:51.374Z,43456
2018-02-13T10:01:01.534Z,40800
2018-02-13T10:02:11.659Z,44928
2018-02-13T10:03:21.910Z,44800
2018-02-13T10:04:31.893Z,48192
2018-02-13T10:05:41.813Z,50048
2018-02-13T10:06:51.819Z,42944
2018-02-13T10:08:02.911Z,44032
2018-02-13T10:09:13.044Z,43008
2018-02-13T10:10:22.964Z,51840
2018-02-13T10:11:33.092Z,50368
2018-02-13T10:12:43.236Z,46528
2018-02-13T10:13:53.407Z,49920
2018-02-13T10:15:03.547Z,47488
2018-02-13T10:16:13.432Z,49504
2018-02-13T10:17:23.606Z,50528
2018-02-13T10:18:33.757Z,48256
2018-02-13T10:19:43.540Z,49152
2018-02-13T10:20:53.745Z,50176
2018-02-13T10:22:03.538Z,52928
2018-02-13T10:23:13.701Z,53152
2018-02-13T10:24:23.572Z,48640
2018-02-13T10:25:33.774Z,46560
2018-02-13T10:26:43.906Z,46976
2018-02-13T10:27:54.194Z,51136
2018-02-13T10:29:04.333Z,52544
2018-02-13T10:30:14.495Z,51968
2018-02-13T10:31:24.734Z,50272
2018-02-13T10:32:34.894Z,49824
2018-02-13T10:33:44.875Z,53440
2018-02-13T10:34:55.026Z,50464
2018-02-13T10:36:05.291Z,52384
2018-02-13T10:37:15.474Z,54368
2018-02-13T10:38:26.600Z,52288
2018-02-13T10:39:36.740Z,53440
2018-02-13T10:40:46.927Z,52256
2018-02-13T10:41:57.084Z,55552
2018-02-13T10:43:07.269Z,54880
2018-02-13T10:44:17.732Z,56384
2018-02-13T10:45:27.630Z,53632
2018-02-13T10:46:37.763Z,58336
2018-02-13T10:47:47.987Z,55328
2018-02-13T10:48:58.559Z,46624
2018-02-13T10:50:08.435Z,52864
2018-02-13T10:51:18.582Z,51968
2018-02-13T10:52:28.769Z,52832
2018-02-13T10:53:38.936Z,55392
2018-02-13T10:54:49.135Z,58304
2018-02-13T10:55:59.338Z,61600
2018-02-13T10:57:09.479Z,49120
2018-02-13T10:58:19.619Z,49216
2018-02-13T10:59:29.594Z,55072
2018-02-13T11:00:39.779Z,50976
2018-02-13T11:01:50.011Z,49568
2018-02-13T11:03:00.184Z,52640
2018-02-13T11:04:10.329Z,58464
2018-02-13T11:05:21.692Z,62048
2018-02-13T11:06:31.860Z,55808
2018-02-13T11:07:42.101Z,45024
2018-02-13T11:08:52.257Z,54816
2018-02-13T11:10:02.154Z,52992
2018-02-13T11:11:12.339Z,51136
2018-02-13T11:12:22.559Z,58016
2018-02-13T11:13:32.775Z,52096
2018-02-13T11:14:42.689Z,43872
2018-02-13T11:15:52.860Z,53920
2018-02-13T11:17:03.019Z,59200
2018-02-13T11:18:13.326Z,48480
2018-02-13T11:19:23.462Z,44448
2018-02-13T11:20:33.622Z,47392
2018-02-13T11:21:43.790Z,47616
2018-02-13T11:22:53.700Z,46656
2018-02-13T11:24:03.851Z,58016
2018-02-13T11:25:14.001Z,55424
2018-02-13T11:26:24.205Z,45888
2018-02-13T11:27:34.453Z,47232
2018-02-13T11:28:44.698Z,48096
2018-02-13T11:29:54.888Z,50880
2018-02-13T11:31:04.756Z,51488
2018-02-13T11:32:14.965Z,55584
2018-02-13T11:33:25.144Z,60608
2018-02-13T11:34:35.372Z,50816
2018-02-13T11:35:45.552Z,44896
2018-02-13T11:36:55.697Z,50304
2018-02-13T11:38:05.849Z,56736
2018-02-13T11:39:16.116Z,57920
2018-02-13T11:40:27.153Z,50976
2018-02-13T11:41:37.276Z,41376
2018-02-13T11:42:47.069Z,44320
2018-02-13T11:43:57.208Z,55200
2018-02-13T11:45:07.396Z,56640
2018-02-13T11:46:17.566Z,50816
2018-02-13T11:47:27.726Z,48256
2018-02-13T11:48:37.943Z,52352
2018-02-13T11:49:48.067Z,53920
2018-02-13T11:50:57.922Z,53760
2018-02-13T11:52:08.074Z,55904
2018-02-13T11:53:18.318Z,49920
2018-02-13T11:54:28.560Z,51360
2018-02-13T11:55:38.822Z,54048
2018-02-13T11:56:49.013Z,59968
2018-02-13T11:57:59.419Z,60768
2018-02-13T11:59:09.335Z,52224
2018-02-13T12:00:19.494Z,52096
2018-02-13T12:01:29.641Z,46208
2018-02-13T12:02:39.624Z,47232
2018-02-13T12:03:49.784Z,50048
2018-02-13T12:05:00.025Z,39488
2018-02-13T12:06:09.964Z,46400
2018-02-13T12:07:20.161Z,62368
2018-02-13T12:08:29.961Z,55552
2018-02-13T12:09:40.093Z,48960
2018-02-13T12:10:50.246Z,55136
2018-02-13T12:12:00.377Z,51840
2018-02-13T12:13:10.559Z,47648
2018-02-13T12:14:20.775Z,51968
2018-02-13T12:15:30.900Z,57312
2018-02-13T12:16:40.854Z,51744
2018-02-13T12:17:51.338Z,41600
2018-02-13T12:19:01.492Z,51072
2018-02-13T12:20:11.629Z,55840
2018-02-13T12:21:21.770Z,53120
2018-02-13T12:22:31.974Z,47488
2018-02-13T12:23:41.918Z,41152
2018-02-13T12:24:53.037Z,48768
2018-02-13T12:26:04.136Z,55008
2018-02-13T12:27:14.264Z,49792
2018-02-13T12:28:24.467Z,55296
2018-02-13T12:29:34.361Z,55360
2018-02-13T12:30:44.538Z,44992
2018-02-13T12:31:54.766Z,51904
2018-02-13T12:33:04.987Z,60128
2018-02-13T12:34:15.148Z,57728
2018-02-13T12:35:25.382Z,61824
2018-02-13T12:36:35.639Z,53760
2018-02-13T12:37:45.792Z,46912
2018-02-13T12:38:56.014Z,55232
2018-02-13T12:40:05.890Z,53248
2018-02-13T12:41:16.083Z,54624
2018-02-13T12:42:26.307Z,57728
2018-02-13T12:43:36.874Z,51424
2018-02-13T12:44:47.200Z,54144
2018-02-13T12:45:57.437Z,56960
2018-02-13T12:47:07.829Z,45632
2018-02-13T12:48:17.968Z,50688
2018-02-13T12:49:28.113Z,51360
2018-02-13T12:50:38.709Z,43296
2018-02-13T12:51:49.308Z,55520
2018-02-13T12:52:59.668Z,50080
2018-02-13T12:54:10.154Z,38976
2018-02-13T12:55:20.297Z,44896
2018-02-13T12:56:30.439Z,50080
2018-02-13T12:57:40.588Z,49472
2018-02-13T12:58:51.048Z,50752
2018-02-13T13:00:01.725Z,48224
2018-02-13T13:01:11.907Z,47776
2018-02-13T13:02:22.368Z,51328
2018-02-13T13:03:32.677Z,50112
2018-02-13T13:04:43.049Z,48480
2018-02-13T13:05:53.471Z,44864
2018-02-13T13:07:03.855Z,44928
2018-02-13T13:08:14.027Z,45184
2018-02-13T13:09:24.406Z,51200
2018-02-13T13:10:35.532Z,48480
2018-02-13T13:11:45.738Z,43424
2018-02-13T13:12:55.895Z,51392
2018-02-13T13:14:08.390Z,44736
2018-02-13T13:15:19.378Z,42592
2018-02-13T13:16:30.023Z,47904
2018-02-13T13:17:39.824Z,43648
2018-02-13T13:18:50.222Z,37856
2018-02-13T13:20:00.614Z,39136
2018-02-13T13:21:11.565Z,41632
2018-02-13T13:22:25.215Z,45600
2018-02-13T13:23:36.391Z,47008
2018-02-13T13:24:47.205Z,41536
2018-02-13T13:25:57.970Z,41184
2018-02-13T13:27:09.327Z,42944
2018-02-13T13:28:19.721Z,43040
2018-02-13T13:29:31.470Z,45280
2018-02-13T13:30:43.911Z,39008
2018-02-13T13:31:54.056Z,25728
2018-02-13T13:33:07.358Z,35200
2018-02-13T13:34:19.759Z,37664
2018-02-13T13:35:29.949Z,40960
2018-02-13T13:36:40.133Z,37376
2018-02-13T13:37:50.576Z,39488
2018-02-13T13:39:00.738Z,41376
2018-02-13T13:40:11.105Z,45088
2018-02-13T13:41:21.284Z,46624
2018-02-13T13:42:31.831Z,42080
2018-02-13T13:43:42.794Z,40352
2018-02-13T13:44:52.424Z,43904
2018-02-13T13:46:03.590Z,45632
2018-02-13T13:47:14.402Z,41888
2018-02-13T13:48:24.583Z,39456
2018-02-13T13:49:34.763Z,40384
2018-02-13T13:50:44.961Z,38912
2018-02-13T13:51:55.176Z,37440
2018-02-13T13:53:05.820Z,34976
2018-02-13T13:54:16.616Z,33056
2018-02-13T13:55:27.658Z,29760
2018-02-13T13:56:37.844Z,22784
2018-02-13T13:57:48.035Z,17760
2018-02-13T13:58:58.187Z,11076
2018-02-13T14:00:08.588Z,10284
2018-02-13T14:01:18.825Z,9952
2018-02-13T14:02:29.035Z,8432
2018-02-13T14:03:39.363Z,7888
2018-02-13T14:04:50.155Z,7520
2018-02-13T14:06:00.340Z,7272
2018-02-13T14:07:10.549Z,7080
2018-02-13T14:08:20.734Z,6916
2018-02-13T14:09:31.359Z,6764
2018-02-13T14:10:41.642Z,6640
2018-02-13T14:11:52.473Z,6528
2018-02-13T14:13:02.739Z,6668
2018-02-13T14:14:12.961Z,8840
2018-02-13T14:15:22.714Z,9336
2018-02-13T14:16:32.662Z,8664
2018-02-13T14:17:42.849Z,8152
2018-02-13T14:18:52.975Z,8040
2018-02-13T14:20:03.137Z,7696
2018-02-13T14:21:13.287Z,7436
2018-02-13T14:22:23.636Z,7236
2018-02-13T14:23:33.510Z,7132
2018-02-13T14:24:43.623Z,7068
2018-02-13T14:25:54.190Z,7056
2018-02-13T14:27:05.303Z,6968
2018-02-13T14:28:15.178Z,6824
2018-02-13T14:29:25.919Z,6648
2018-02-13T14:30:36.047Z,6356
2018-02-13T14:31:46.167Z,6096
2018-02-13T14:32:56.058Z,5964
2018-02-13T14:34:06.462Z,5948
2018-02-13T14:35:17.078Z,5960
2018-02-13T14:36:27.546Z,5884
2018-02-13T14:37:37.945Z,5788
2018-02-13T14:38:48.059Z,5704
2018-02-13T14:39:58.198Z,5636
2018-02-13T14:41:08.326Z,5584
2018-02-13T14:42:18.575Z,5580
2018-02-13T14:43:28.852Z,5632
2018-02-13T14:44:38.712Z,4896
2018-02-13T14:45:48.611Z,4812
2018-02-13T14:46:58.779Z,4796
2018-02-13T14:48:09.874Z,11032
2018-02-13T14:49:20.002Z,16192
2018-02-13T14:50:32.002Z,17216
2018-02-13T14:51:43.142Z,16480
2018-02-13T14:52:53.265Z,7640
2018-02-13T14:54:03.511Z,10808
2018-02-13T14:55:13.661Z,17280
2018-02-13T14:56:23.799Z,18304
2018-02-13T14:57:34.189Z,18080
2018-02-13T14:58:44.589Z,17536
2018-02-13T14:59:54.854Z,17888
2018-02-13T15:01:05.013Z,17664
2018-02-13T15:02:15.096Z,17376
2018-02-13T15:03:25.248Z,17408
2018-02-13T15:04:35.388Z,16864
2018-02-13T15:05:48.321Z,16704
2018-02-13T15:08:13.373Z,15872
2018-02-13T15:09:23.752Z,15488
2018-02-13T15:10:33.924Z,13056
2018-02-13T15:11:46.103Z,9680
2018-02-13T15:12:56.229Z,6512
2018-02-13T15:14:06.395Z,5756
2018-02-13T15:16:32.726Z,5184
2018-02-13T15:17:42.833Z,4788
2018-02-13T15:20:08.558Z,4392
2018-02-13T15:21:20.017Z,4308
2018-02-13T15:22:30.375Z,4220
2018-02-13T15:23:40.541Z,4144
2018-02-13T15:24:50.759Z,4104
2018-02-13T15:26:02.285Z,3996
2018-02-13T15:27:13.829Z,3812
2018-02-13T15:28:25.040Z,3648
2018-02-13T15:29:35.202Z,3596
2018-02-13T15:30:45.708Z,3424
2018-02-13T15:31:56.186Z,3292
2018-02-13T15:34:20.986Z,3132
2018-02-13T15:35:32.362Z,2928
2018-02-13T15:36:42.524Z,2788
2018-02-13T15:37:52.699Z,2668
2018-02-13T15:39:02.904Z,2520
2018-02-13T15:40:14.520Z,2364
2018-02-13T15:41:24.867Z,2252
2018-02-13T15:42:34.791Z,2132
2018-02-13T15:43:44.922Z,1988
2018-02-13T15:44:55.059Z,1888
2018-02-13T15:46:05.246Z,1796
2018-02-13T15:47:15.402Z,1708
2018-02-13T15:48:26.562Z,1648
2018-02-13T15:49:36.797Z,1584
2018-02-13T15:50:46.948Z,1528
2018-02-13T15:51:57.142Z,1476
2018-02-13T15:53:07.298Z,1424
2018-02-13T15:54:17.432Z,1384
2018-02-13T15:55:27.610Z,1340
2018-02-13T15:56:38.739Z,1288
2018-02-13T15:57:48.976Z,1232
2018-02-13T15:58:59.150Z,1172
2018-02-13T16:00:09.304Z,1112
2018-02-13T16:01:19.485Z,1052
2018-02-13T16:02:29.642Z,996
2018-02-13T16:03:39.783Z,936
2018-02-13T16:04:49.957Z,884
2018-02-13T16:06:00.148Z,836
2018-02-13T16:07:10.282Z,788